sensor_id;sensor_type;location;lat;lon;timestamp;pressure;altitude;pressure_sealevel;temperature;humidity
13800;BME280;6971;50.028;9.258;2023-04-15T00:03:16;98485.47;;;1.89;100.00
13800;BME280;6971;50.028;9.258;2023-04-15T00:08:16;98495.03;;;1.87;100.00
13800;BME280;6971;50.028;9.258;2023-04-15T00:13:17;98483.78;;;1.86;100.00
13800;BME280;6971;50.028;9.258;2023-04-15T00:18:17;98479.34;;;1.90;100.00
13800;BME280;6971;50.028;9.258;2023-04-15T00:23:18;98483.59;;;1.92;100.00
13800;BME280;6971;50.028;9.258;2023-04-15T00:28:18;98476.72;;;1.91;100.00
13800;BME280;6971;50.028;9.258;2023-04-15T00:33:18;98478.31;;;1.95;100.00
13800;BME280;6971;50.028;9.258;2023-04-15T00:38:19;98476.72;;;1.91;100.00
13800;BME280;6971;50.028;9.258;2023-04-15T00:43:19;98471.38;;;1.94;100.00
13800;BME280;6971;50.028;9.258;2023-04-15T00:48:20;98469.78;;;1.90;100.00
13800;BME280;6971;50.028;9.258;2023-04-15T00:53:20;98474.44;;;1.82;100.00
13800;BME280;6971;50.028;9.258;2023-04-15T00:58:20;98470.97;;;1.81;100.00
13800;BME280;6971;50.028;9.258;2023-04-15T01:03:21;98470.00;;;1.84;100.00
13800;BME280;6971;50.028;9.258;2023-04-15T01:08:21;98467.38;;;1.86;100.00
13800;BME280;6971;50.028;9.258;2023-04-15T01:13:25;98467.16;;;1.92;100.00
13800;BME280;6971;50.028;9.258;2023-04-15T01:18:26;98465.22;;;1.97;100.00
13800;BME280;6971;50.028;9.258;2023-04-15T01:23:27;98466.41;;;1.88;100.00
13800;BME280;6971;50.028;9.258;2023-04-15T01:28:28;98472.47;;;1.89;100.00
13800;BME280;6971;50.028;9.258;2023-04-15T01:33:28;98479.13;;;1.96;100.00
13800;BME280;6971;50.028;9.258;2023-04-15T01:38:29;98469.78;;;1.90;100.00
13800;BME280;6971;50.028;9.258;2023-04-15T01:43:30;98471.44;;;1.93;100.00
13800;BME280;6971;50.028;9.258;2023-04-15T01:48:31;98466.16;;;1.96;100.00
13800;BME280;6971;50.028;9.258;2023-04-15T01:53:31;98458.25;;;1.99;100.00
13800;BME280;6971;50.028;9.258;2023-04-15T01:58:32;98459.16;;;1.98;100.00
13800;BME280;6971;50.028;9.258;2023-04-15T02:03:32;98453.00;;;2.01;100.00
13800;BME280;6971;50.028;9.258;2023-04-15T02:08:33;98456.97;;;2.11;100.00
13800;BME280;6971;50.028;9.258;2023-04-15T02:13:34;98456.97;;;2.11;100.00
13800;BME280;6971;50.028;9.258;2023-04-15T02:18:34;98462.84;;;2.16;100.00
13800;BME280;6971;50.028;9.258;2023-04-15T02:23:34;98464.06;;;2.31;100.00
13800;BME280;6971;50.028;9.258;2023-04-15T02:28:35;98468.34;;;2.32;100.00
13800;BME280;6971;50.028;9.258;2023-04-15T02:33:36;98468.53;;;2.28;100.00
13800;BME280;6971;50.028;9.258;2023-04-15T02:38:37;98468.16;;;2.39;100.00
13800;BME280;6971;50.028;9.258;2023-04-15T02:43:39;98471.81;;;2.33;100.00
13800;BME280;6971;50.028;9.258;2023-04-15T02:48:40;98473.41;;;2.37;100.00
13800;BME280;6971;50.028;9.258;2023-04-15T02:53:41;98465.03;;;2.29;100.00
13800;BME280;6971;50.028;9.258;2023-04-15T02:58:43;98461.41;;;2.33;100.00
13800;BME280;6971;50.028;9.258;2023-04-15T03:03:44;98459.53;;;2.37;100.00
13800;BME280;6971;50.028;9.258;2023-04-15T03:08:44;98462.38;;;2.30;100.00
13800;BME280;6971;50.028;9.258;2023-04-15T03:13:44;98456.59;;;2.22;100.00
13800;BME280;6971;50.028;9.258;2023-04-15T03:18:45;98456.13;;;2.36;100.00
13800;BME280;6971;50.028;9.258;2023-04-15T03:23:45;98451.94;;;2.32;100.00
13800;BME280;6971;50.028;9.258;2023-04-15T03:28:48;98440.72;;;2.30;100.00
13800;BME280;6971;50.028;9.258;2023-04-15T03:33:49;98446.66;;;2.33;100.00
13800;BME280;6971;50.028;9.258;2023-04-15T03:38:49;98444.13;;;2.32;100.00
13800;BME280;6971;50.028;9.258;2023-04-15T03:43:49;98447.41;;;2.37;100.00
13800;BME280;6971;50.028;9.258;2023-04-15T03:48:51;98449.31;;;2.32;100.00
13800;BME280;6971;50.028;9.258;2023-04-15T03:53:51;98452.03;;;2.29;100.00
13800;BME280;6971;50.028;9.258;2023-04-15T03:58:51;98448.50;;;2.30;100.00
13800;BME280;6971;50.028;9.258;2023-04-15T04:03:52;98448.38;;;2.34;100.00
13800;BME280;6971;50.028;9.258;2023-04-15T04:08:52;98450.16;;;2.32;100.00
13800;BME280;6971;50.028;9.258;2023-04-15T04:13:52;98448.47;;;2.31;100.00
13800;BME280;6971;50.028;9.258;2023-04-15T04:18:53;98444.91;;;2.34;100.00
13800;BME280;6971;50.028;9.258;2023-04-15T04:23:53;98447.50;;;2.34;100.00
13800;BME280;6971;50.028;9.258;2023-04-15T04:28:54;98451.75;;;2.37;100.00
13800;BME280;6971;50.028;9.258;2023-04-15T04:33:54;98457.19;;;2.30;100.00
13800;BME280;6971;50.028;9.258;2023-04-15T04:38:54;98460.63;;;2.31;100.00
13800;BME280;6971;50.028;9.258;2023-04-15T04:43:55;98468.63;;;2.25;100.00
13800;BME280;6971;50.028;9.258;2023-04-15T04:48:55;98472.72;;;2.32;100.00
13800;BME280;6971;50.028;9.258;2023-04-15T04:53:55;98466.63;;;2.33;100.00
13800;BME280;6971;50.028;9.258;2023-04-15T04:58:56;98459.53;;;2.37;100.00
13800;BME280;6971;50.028;9.258;2023-04-15T05:03:56;98463.06;;;2.35;100.00
13800;BME280;6971;50.028;9.258;2023-04-15T05:08:56;98460.34;;;2.39;100.00
13800;BME280;6971;50.028;9.258;2023-04-15T05:13:57;98465.38;;;2.43;100.00
13800;BME280;6971;50.028;9.258;2023-04-15T05:18:58;98471.09;;;2.53;100.00
13800;BME280;6971;50.028;9.258;2023-04-15T05:23:59;98472.75;;;2.56;100.00
13800;BME280;6971;50.028;9.258;2023-04-15T05:28:59;98474.03;;;2.68;100.00
13800;BME280;6971;50.028;9.258;2023-04-15T05:34:00;98483.28;;;2.77;100.00
13800;BME280;6971;50.028;9.258;2023-04-15T05:39:00;98483.69;;;2.88;100.00
13800;BME280;6971;50.028;9.258;2023-04-15T05:44:00;98486.38;;;2.86;100.00
13800;BME280;6971;50.028;9.258;2023-04-15T05:49:01;98474.50;;;3.02;100.00
13800;BME280;6971;50.028;9.258;2023-04-15T05:54:01;98492.53;;;3.30;100.00
13800;BME280;6971;50.028;9.258;2023-04-15T05:59:01;98488.41;;;3.47;100.00
13800;BME280;6971;50.028;9.258;2023-04-15T06:04:03;98495.75;;;3.59;100.00
13800;BME280;6971;50.028;9.258;2023-04-15T06:09:03;98492.44;;;3.76;100.00
13800;BME280;6971;50.028;9.258;2023-04-15T06:14:04;98494.66;;;3.86;100.00
13800;BME280;6971;50.028;9.258;2023-04-15T06:19:04;98503.94;;;4.14;100.00
13800;BME280;6971;50.028;9.258;2023-04-15T06:24:04;98511.63;;;4.38;100.00
13800;BME280;6971;50.028;9.258;2023-04-15T06:29:05;98499.63;;;4.54;100.00
13800;BME280;6971;50.028;9.258;2023-04-15T06:34:05;98509.53;;;4.46;100.00
13800;BME280;6971;50.028;9.258;2023-04-15T06:39:06;98516.72;;;4.62;100.00
13800;BME280;6971;50.028;9.258;2023-04-15T06:44:06;98519.41;;;4.79;100.00
13800;BME280;6971;50.028;9.258;2023-04-15T06:49:07;98526.03;;;4.87;100.00
13800;BME280;6971;50.028;9.258;2023-04-15T06:54:07;98517.22;;;5.28;100.00
13800;BME280;6971;50.028;9.258;2023-04-15T06:59:07;98522.94;;;5.17;100.00
13800;BME280;6971;50.028;9.258;2023-04-15T07:04:08;98518.84;;;5.11;100.00
13800;BME280;6971;50.028;9.258;2023-04-15T07:09:08;98525.75;;;5.31;100.00
13800;BME280;6971;50.028;9.258;2023-04-15T07:14:09;98519.03;;;5.45;100.00
13800;BME280;6971;50.028;9.258;2023-04-15T07:19:09;98525.72;;;5.70;100.00
13800;BME280;6971;50.028;9.258;2023-04-15T07:24:09;98524.09;;;5.67;100.00
13800;BME280;6971;50.028;9.258;2023-04-15T07:29:10;98530.94;;;5.70;100.00
13800;BME280;6971;50.028;9.258;2023-04-15T07:34:10;98532.91;;;5.84;100.00
13800;BME280;6971;50.028;9.258;2023-04-15T07:39:11;98528.47;;;6.04;100.00
13800;BME280;6971;50.028;9.258;2023-04-15T07:44:11;98531.69;;;6.09;100.00
13800;BME280;6971;50.028;9.258;2023-04-15T07:49:12;98542.34;;;6.06;100.00
13800;BME280;6971;50.028;9.258;2023-04-15T07:54:12;98532.63;;;6.77;100.00
13800;BME280;6971;50.028;9.258;2023-04-15T07:59:13;98531.69;;;7.60;100.00
13800;BME280;6971;50.028;9.258;2023-04-15T08:04:16;98527.34;;;7.11;100.00
13800;BME280;6971;50.028;9.258;2023-04-15T08:09:17;98529.91;;;7.44;100.00
13800;BME280;6971;50.028;9.258;2023-04-15T08:14:17;98530.78;;;7.76;100.00
13800;BME280;6971;50.028;9.258;2023-04-15T08:19:17;98535.41;;;8.33;100.00
13800;BME280;6971;50.028;9.258;2023-04-15T08:24:18;98525.81;;;8.63;98.71
13800;BME280;6971;50.028;9.258;2023-04-15T08:29:18;98528.00;;;8.40;98.16
13800;BME280;6971;50.028;9.258;2023-04-15T08:34:19;98537.25;;;8.77;96.04
13800;BME280;6971;50.028;9.258;2023-04-15T08:39:19;98530.88;;;8.95;87.77
13800;BME280;6971;50.028;9.258;2023-04-15T08:44:20;98533.88;;;9.04;83.11
13800;BME280;6971;50.028;9.258;2023-04-15T08:49:25;98539.31;;;9.00;79.58
13800;BME280;6971;50.028;9.258;2023-04-15T08:54:26;98540.00;;;9.46;78.87
13800;BME280;6971;50.028;9.258;2023-04-15T08:59:29;98543.81;;;9.27;79.14
13800;BME280;6971;50.028;9.258;2023-04-15T09:04:30;98547.88;;;9.04;80.14
13800;BME280;6971;50.028;9.258;2023-04-15T09:09:30;98548.41;;;9.24;80.62
13800;BME280;6971;50.028;9.258;2023-04-15T09:14:31;98556.41;;;9.08;81.79
13800;BME280;6971;50.028;9.258;2023-04-15T09:19:33;98562.59;;;8.92;81.13
13800;BME280;6971;50.028;9.258;2023-04-15T09:24:38;98566.53;;;8.99;82.33
13800;BME280;6971;50.028;9.258;2023-04-15T09:29:40;98566.16;;;9.20;82.34
13800;BME280;6971;50.028;9.258;2023-04-15T09:34:42;98576.56;;;9.22;81.20
13800;BME280;6971;50.028;9.258;2023-04-15T09:39:51;98588.41;;;9.14;81.00
13800;BME280;6971;50.028;9.258;2023-04-15T09:44:52;98591.50;;;9.07;81.72
13800;BME280;6971;50.028;9.258;2023-04-15T09:49:57;98590.75;;;9.34;82.09
13800;BME280;6971;50.028;9.258;2023-04-15T09:54:58;98597.38;;;9.54;81.21
13800;BME280;6971;50.028;9.258;2023-04-15T09:59:59;98598.44;;;9.37;80.36
13800;BME280;6971;50.028;9.258;2023-04-15T10:05:00;98598.34;;;9.24;81.28
13800;BME280;6971;50.028;9.258;2023-04-15T10:10:02;98591.69;;;9.33;82.10
13800;BME280;6971;50.028;9.258;2023-04-15T10:15:04;98592.84;;;9.14;83.68
13800;BME280;6971;50.028;9.258;2023-04-15T10:20:05;98602.84;;;9.36;81.98
13800;BME280;6971;50.028;9.258;2023-04-15T10:25:07;98609.81;;;9.23;85.37
13800;BME280;6971;50.028;9.258;2023-04-15T10:30:09;98608.22;;;9.20;84.22
13800;BME280;6971;50.028;9.258;2023-04-15T10:35:10;98614.69;;;9.14;84.20
13800;BME280;6971;50.028;9.258;2023-04-15T10:40:26;98616.19;;;9.33;85.64
13800;BME280;6971;50.028;9.258;2023-04-15T10:45:31;98618.06;;;8.87;83.65
13800;BME280;6971;50.028;9.258;2023-04-15T10:50:32;98630.16;;;8.75;85.97
13800;BME280;6971;50.028;9.258;2023-04-15T10:55:33;98628.09;;;8.34;92.02
13800;BME280;6971;50.028;9.258;2023-04-15T11:00:36;98634.75;;;8.25;94.72
13800;BME280;6971;50.028;9.258;2023-04-15T11:05:50;98652.56;;;8.04;94.86
13800;BME280;6971;50.028;9.258;2023-04-15T11:10:52;98647.25;;;8.05;98.19
13800;BME280;6971;50.028;9.258;2023-04-15T11:15:56;98653.41;;;7.88;100.00
13800;BME280;6971;50.028;9.258;2023-04-15T11:20:59;98660.25;;;7.91;100.00
13800;BME280;6971;50.028;9.258;2023-04-15T11:26:02;98648.56;;;8.13;100.00
13800;BME280;6971;50.028;9.258;2023-04-15T11:31:10;98668.06;;;7.92;100.00
13800;BME280;6971;50.028;9.258;2023-04-15T11:36:10;98671.75;;;8.20;100.00
13800;BME280;6971;50.028;9.258;2023-04-15T11:41:11;98672.09;;;8.14;100.00
13800;BME280;6971;50.028;9.258;2023-04-15T11:46:12;98677.22;;;8.01;100.00
13800;BME280;6971;50.028;9.258;2023-04-15T11:51:13;98681.44;;;8.04;100.00
13800;BME280;6971;50.028;9.258;2023-04-15T11:56:19;98682.25;;;7.88;100.00
13800;BME280;6971;50.028;9.258;2023-04-15T12:01:20;98690.41;;;8.00;100.00
13800;BME280;6971;50.028;9.258;2023-04-15T12:06:22;98694.03;;;7.81;100.00
13800;BME280;6971;50.028;9.258;2023-04-15T12:11:29;98706.16;;;8.16;100.00
13800;BME280;6971;50.028;9.258;2023-04-15T12:16:30;98713.06;;;7.84;100.00
13800;BME280;6971;50.028;9.258;2023-04-15T12:21:35;98714.97;;;7.99;100.00
13800;BME280;6971;50.028;9.258;2023-04-15T12:31:49;98726.03;;;7.88;100.00
13800;BME280;6971;50.028;9.258;2023-04-15T12:36:50;98728.31;;;7.78;100.00
13800;BME280;6971;50.028;9.258;2023-04-15T12:41:51;98733.59;;;7.60;100.00
13800;BME280;6971;50.028;9.258;2023-04-15T12:46:52;98742.34;;;7.77;100.00
13800;BME280;6971;50.028;9.258;2023-04-15T12:51:55;98747.66;;;7.59;100.00
13800;BME280;6971;50.028;9.258;2023-04-15T12:56:55;98749.47;;;7.57;100.00
13800;BME280;6971;50.028;9.258;2023-04-15T13:01:56;98760.44;;;7.65;100.00
13800;BME280;6971;50.028;9.258;2023-04-15T13:06:56;98758.81;;;7.63;100.00
13800;BME280;6971;50.028;9.258;2023-04-15T13:11:57;98756.75;;;7.52;100.00
13800;BME280;6971;50.028;9.258;2023-04-15T13:16:58;98767.09;;;7.55;100.00
13800;BME280;6971;50.028;9.258;2023-04-15T13:21:59;98766.31;;;7.53;100.00
13800;BME280;6971;50.028;9.258;2023-04-15T13:27:00;98774.09;;;7.54;100.00
13800;BME280;6971;50.028;9.258;2023-04-15T13:32:00;98769.28;;;7.29;100.00
13800;BME280;6971;50.028;9.258;2023-04-15T13:37:08;98783.91;;;7.51;100.00
13800;BME280;6971;50.028;9.258;2023-04-15T13:42:08;98778.81;;;7.48;100.00
13800;BME280;6971;50.028;9.258;2023-04-15T13:47:08;98776.53;;;7.41;100.00
13800;BME280;6971;50.028;9.258;2023-04-15T13:52:10;98784.22;;;7.27;100.00
13800;BME280;6971;50.028;9.258;2023-04-15T13:57:10;98778.75;;;7.49;100.00
13800;BME280;6971;50.028;9.258;2023-04-15T14:02:11;98785.66;;;7.50;100.00
13800;BME280;6971;50.028;9.258;2023-04-15T14:07:11;98792.94;;;7.27;100.00
13800;BME280;6971;50.028;9.258;2023-04-15T14:12:14;98808.66;;;7.27;100.00
13800;BME280;6971;50.028;9.258;2023-04-15T14:17:14;98814.84;;;7.26;100.00
13800;BME280;6971;50.028;9.258;2023-04-15T14:22:15;98813.06;;;7.27;100.00
13800;BME280;6971;50.028;9.258;2023-04-15T14:27:16;98812.75;;;7.15;100.00
13800;BME280;6971;50.028;9.258;2023-04-15T14:32:16;98822.16;;;7.20;100.00
13800;BME280;6971;50.028;9.258;2023-04-15T14:37:17;98824.53;;;7.24;100.00
13800;BME280;6971;50.028;9.258;2023-04-15T14:42:17;98836.63;;;7.09;100.00
13800;BME280;6971;50.028;9.258;2023-04-15T14:47:17;98839.91;;;7.14;100.00
13800;BME280;6971;50.028;9.258;2023-04-15T14:52:17;98842.97;;;7.23;100.00
13800;BME280;6971;50.028;9.258;2023-04-15T14:57:18;98854.09;;;7.28;100.00
13800;BME280;6971;50.028;9.258;2023-04-15T15:02:18;98856.25;;;7.37;100.00
13800;BME280;6971;50.028;9.258;2023-04-15T15:07:18;98859.63;;;7.39;100.00
13800;BME280;6971;50.028;9.258;2023-04-15T15:12:19;98868.09;;;7.44;100.00
13800;BME280;6971;50.028;9.258;2023-04-15T15:17:21;98870.56;;;7.30;100.00
13800;BME280;6971;50.028;9.258;2023-04-15T15:22:21;98874.19;;;7.27;100.00
13800;BME280;6971;50.028;9.258;2023-04-15T15:27:22;98879.38;;;7.47;100.00
13800;BME280;6971;50.028;9.258;2023-04-15T15:32:22;98885.38;;;7.31;100.00
13800;BME280;6971;50.028;9.258;2023-04-15T15:37:23;98888.16;;;7.28;100.00
13800;BME280;6971;50.028;9.258;2023-04-15T15:42:23;98892.63;;;7.43;100.00
13800;BME280;6971;50.028;9.258;2023-04-15T15:47:24;98897.88;;;7.43;100.00
13800;BME280;6971;50.028;9.258;2023-04-15T15:52:26;98901.72;;;7.36;100.00
13800;BME280;6971;50.028;9.258;2023-04-15T15:57:26;98909.88;;;7.30;100.00
13800;BME280;6971;50.028;9.258;2023-04-15T16:02:26;98910.38;;;7.38;100.00
13800;BME280;6971;50.028;9.258;2023-04-15T16:07:27;98918.34;;;7.17;100.00
13800;BME280;6971;50.028;9.258;2023-04-15T16:12:27;98923.94;;;7.29;100.00
13800;BME280;6971;50.028;9.258;2023-04-15T16:17:27;98927.00;;;7.20;100.00
13800;BME280;6971;50.028;9.258;2023-04-15T16:22:28;98933.94;;;7.21;100.00
13800;BME280;6971;50.028;9.258;2023-04-15T16:27:28;98935.09;;;7.32;100.00
13800;BME280;6971;50.028;9.258;2023-04-15T16:32:29;98945.72;;;7.29;100.00
13800;BME280;6971;50.028;9.258;2023-04-15T16:37:30;98947.06;;;7.01;100.00
13800;BME280;6971;50.028;9.258;2023-04-15T16:42:32;98959.03;;;7.07;100.00
13800;BME280;6971;50.028;9.258;2023-04-15T16:47:32;98961.69;;;7.25;100.00
13800;BME280;6971;50.028;9.258;2023-04-15T16:52:33;98971.56;;;7.20;100.00
13800;BME280;6971;50.028;9.258;2023-04-15T16:57:34;98968.38;;;7.13;100.00
13800;BME280;6971;50.028;9.258;2023-04-15T17:02:34;98984.28;;;7.27;100.00
13800;BME280;6971;50.028;9.258;2023-04-15T17:07:35;98985.22;;;7.07;100.00
13800;BME280;6971;50.028;9.258;2023-04-15T17:12:35;98989.53;;;7.08;100.00
13800;BME280;6971;50.028;9.258;2023-04-15T17:17:35;98992.03;;;7.11;100.00
13800;BME280;6971;50.028;9.258;2023-04-15T17:22:36;98996.91;;;7.19;100.00
13800;BME280;6971;50.028;9.258;2023-04-15T17:27:36;99005.06;;;7.32;100.00
13800;BME280;6971;50.028;9.258;2023-04-15T17:32:37;99008.59;;;7.12;100.00
13800;BME280;6971;50.028;9.258;2023-04-15T17:37:38;99008.31;;;6.99;100.00
13800;BME280;6971;50.028;9.258;2023-04-15T17:42:39;99014.97;;;7.06;100.00
13800;BME280;6971;50.028;9.258;2023-04-15T17:47:40;99024.31;;;6.92;100.00
13800;BME280;6971;50.028;9.258;2023-04-15T17:52:40;99031.59;;;7.05;100.00
13800;BME280;6971;50.028;9.258;2023-04-15T17:57:41;99041.59;;;6.97;100.00
13800;BME280;6971;50.028;9.258;2023-04-15T18:02:41;99044.28;;;6.95;100.00
13800;BME280;6971;50.028;9.258;2023-04-15T18:07:41;99045.34;;;6.91;100.00
13800;BME280;6971;50.028;9.258;2023-04-15T18:12:42;99055.19;;;6.86;100.00
13800;BME280;6971;50.028;9.258;2023-04-15T18:17:42;99068.06;;;6.90;100.00
13800;BME280;6971;50.028;9.258;2023-04-15T18:22:43;99074.22;;;6.89;100.00
13800;BME280;6971;50.028;9.258;2023-04-15T18:27:43;99083.13;;;6.85;100.00
13800;BME280;6971;50.028;9.258;2023-04-15T18:32:44;99088.38;;;6.85;100.00
13800;BME280;6971;50.028;9.258;2023-04-15T18:37:45;99093.72;;;7.03;100.00
13800;BME280;6971;50.028;9.258;2023-04-15T18:42:45;99099.38;;;6.94;100.00
13800;BME280;6971;50.028;9.258;2023-04-15T18:47:46;99100.00;;;6.99;100.00
13800;BME280;6971;50.028;9.258;2023-04-15T18:52:46;99112.72;;;6.87;100.00
13800;BME280;6971;50.028;9.258;2023-04-15T18:57:47;99119.22;;;6.99;100.00
13800;BME280;6971;50.028;9.258;2023-04-15T19:02:47;99129.59;;;7.01;100.00
13800;BME280;6971;50.028;9.258;2023-04-15T19:07:49;99134.00;;;7.00;100.00
13800;BME280;6971;50.028;9.258;2023-04-15T19:12:50;99134.59;;;6.86;100.00
13800;BME280;6971;50.028;9.258;2023-04-15T19:17:50;99140.59;;;7.09;100.00
13800;BME280;6971;50.028;9.258;2023-04-15T19:22:50;99145.91;;;7.08;100.00
13800;BME280;6971;50.028;9.258;2023-04-15T19:27:51;99151.66;;;6.97;100.00
13800;BME280;6971;50.028;9.258;2023-04-15T19:32:51;99158.31;;;7.04;100.00
13800;BME280;6971;50.028;9.258;2023-04-15T19:37:53;99168.78;;;7.04;100.00
13800;BME280;6971;50.028;9.258;2023-04-15T19:42:54;99175.88;;;7.02;100.00
13800;BME280;6971;50.028;9.258;2023-04-15T19:47:54;99179.31;;;7.02;100.00
13800;BME280;6971;50.028;9.258;2023-04-15T19:52:55;99177.69;;;7.00;100.00
13800;BME280;6971;50.028;9.258;2023-04-15T19:57:55;99179.53;;;6.98;100.00
13800;BME280;6971;50.028;9.258;2023-04-15T20:02:56;99176.72;;;7.02;100.00
13800;BME280;6971;50.028;9.258;2023-04-15T20:07:56;99177.50;;;7.04;100.00
13800;BME280;6971;50.028;9.258;2023-04-15T20:12:56;99191.31;;;7.08;100.00
13800;BME280;6971;50.028;9.258;2023-04-15T20:17:57;99192.03;;;7.12;100.00
13800;BME280;6971;50.028;9.258;2023-04-15T20:22:57;99181.81;;;7.05;100.00
13800;BME280;6971;50.028;9.258;2023-04-15T20:27:57;99188.63;;;7.10;100.00
13800;BME280;6971;50.028;9.258;2023-04-15T20:32:58;99185.91;;;7.13;100.00
13800;BME280;6971;50.028;9.258;2023-04-15T20:38:00;99183.41;;;7.10;100.00
13800;BME280;6971;50.028;9.258;2023-04-15T20:43:01;99195.50;;;7.12;100.00
13800;BME280;6971;50.028;9.258;2023-04-15T20:48:02;99197.38;;;7.10;100.00
13800;BME280;6971;50.028;9.258;2023-04-15T20:53:02;99194.75;;;7.10;100.00
13800;BME280;6971;50.028;9.258;2023-04-15T20:58:05;99192.88;;;7.12;100.00
13800;BME280;6971;50.028;9.258;2023-04-15T21:03:05;99205.06;;;7.13;100.00
13800;BME280;6971;50.028;9.258;2023-04-15T21:08:06;99205.59;;;7.01;100.00
13800;BME280;6971;50.028;9.258;2023-04-15T21:13:06;99207.91;;;7.09;100.00
13800;BME280;6971;50.028;9.258;2023-04-15T21:18:06;99218.19;;;7.13;100.00
13800;BME280;6971;50.028;9.258;2023-04-15T21:23:07;99224.22;;;7.15;100.00
13800;BME280;6971;50.028;9.258;2023-04-15T21:28:07;99226.03;;;7.13;100.00
13800;BME280;6971;50.028;9.258;2023-04-15T21:33:07;99229.97;;;7.03;100.00
13800;BME280;6971;50.028;9.258;2023-04-15T21:38:10;99238.75;;;7.02;100.00
13800;BME280;6971;50.028;9.258;2023-04-15T21:43:10;99234.75;;;6.93;100.00
13800;BME280;6971;50.028;9.258;2023-04-15T21:48:11;99247.00;;;7.13;100.00
13800;BME280;6971;50.028;9.258;2023-04-15T21:53:12;99248.84;;;7.11;100.00
13800;BME280;6971;50.028;9.258;2023-04-15T21:58:13;99253.28;;;7.09;100.00
13800;BME280;6971;50.028;9.258;2023-04-15T22:03:13;99262.88;;;7.10;100.00
13800;BME280;6971;50.028;9.258;2023-04-15T22:08:13;99268.47;;;7.01;100.00
13800;BME280;6971;50.028;9.258;2023-04-15T22:13:15;99268.63;;;6.98;100.00
13800;BME280;6971;50.028;9.258;2023-04-15T22:18:16;99272.69;;;7.05;100.00
13800;BME280;6971;50.028;9.258;2023-04-15T22:23:16;99269.63;;;6.95;100.00
13800;BME280;6971;50.028;9.258;2023-04-15T22:28:19;99272.09;;;6.98;100.00
13800;BME280;6971;50.028;9.258;2023-04-15T22:33:19;99276.88;;;6.88;100.00
13800;BME280;6971;50.028;9.258;2023-04-15T22:38:20;99292.22;;;6.98;100.00
13800;BME280;6971;50.028;9.258;2023-04-15T22:43:20;99300.00;;;6.99;100.00
13800;BME280;6971;50.028;9.258;2023-04-15T22:48:21;99297.50;;;6.96;100.00
13800;BME280;6971;50.028;9.258;2023-04-15T22:53:21;99306.91;;;7.02;100.00
13800;BME280;6971;50.028;9.258;2023-04-15T22:58:22;99316.63;;;6.98;100.00
13800;BME280;6971;50.028;9.258;2023-04-15T23:03:22;99321.09;;;6.96;100.00
13800;BME280;6971;50.028;9.258;2023-04-15T23:08:23;99327.31;;;6.94;100.00
13800;BME280;6971;50.028;9.258;2023-04-15T23:13:23;99325.34;;;6.99;100.00
13800;BME280;6971;50.028;9.258;2023-04-15T23:18:23;99335.66;;;7.03;100.00
13800;BME280;6971;50.028;9.258;2023-04-15T23:23:24;99334.00;;;7.01;100.00
13800;BME280;6971;50.028;9.258;2023-04-15T23:28:24;99335.72;;;7.02;100.00
13800;BME280;6971;50.028;9.258;2023-04-15T23:33:25;99345.38;;;7.00;100.00
13800;BME280;6971;50.028;9.258;2023-04-15T23:38:25;99348.94;;;6.99;100.00
13800;BME280;6971;50.028;9.258;2023-04-15T23:43:25;99345.38;;;7.00;100.00
13800;BME280;6971;50.028;9.258;2023-04-15T23:48:26;99349.31;;;6.89;100.00
13800;BME280;6971;50.028;9.258;2023-04-15T23:53:26;99340.63;;;6.87;100.00
13800;BME280;6971;50.028;9.258;2023-04-15T23:58:28;99349.84;;;6.98;100.00
